Time;durP1;ratioP1;P1;durP2;ratioP2;P2;SDS_P1;SDS_P2;PMS_P1;PMS_P2;Temp;Humidity;BMP_temperature;BMP_pressure;BME280_temperature;BME280_humidity;BME280_pressure;Samples;Min_cycle;Max_cycle;Signal;HPM_P1;HPM_P2
2022/07/17 00:02:13;;;;;;;2.53;0.50;;;14.50;99.90;;;;;;4990239;28;20030;-67
2022/07/17 00:04:39;;;;;;;3.88;0.77;;;14.40;99.90;;;;;;4993398;28;20053;-67
2022/07/17 00:07:05;;;;;;;2.08;0.50;;;14.50;99.90;;;;;;4994377;28;20817;-67
2022/07/17 00:09:30;;;;;;;3.15;0.63;;;14.40;99.90;;;;;;4994225;28;20030;-67
2022/07/17 00:11:56;;;;;;;3.35;0.80;;;;;;;;;;4994130;28;20034;-67
2022/07/17 00:14:22;;;;;;;5.68;0.73;;;14.30;99.90;;;;;;4993574;28;20130;-67
2022/07/17 00:16:47;;;;;;;2.63;0.85;;;14.30;99.90;;;;;;4976506;28;20027;-67
2022/07/17 00:19:14;;;;;;;3.20;0.82;;;;;;;;;;4994022;28;20393;-67
2022/07/17 00:21:40;;;;;;;1.85;0.60;;;13.80;99.90;;;;;;4993931;28;20107;-67
2022/07/17 00:24:06;;;;;;;1.83;0.52;;;14.10;99.90;;;;;;5012679;28;20056;-67
2022/07/17 00:26:32;;;;;;;1.15;0.70;;;14.10;99.90;;;;;;5013582;28;20387;-67
2022/07/17 00:28:57;;;;;;;1.65;0.50;;;14.50;99.90;;;;;;5013189;28;20383;-67
2022/07/17 00:31:23;;;;;;;5.25;0.60;;;14.10;99.90;;;;;;5013329;28;20105;-67
2022/07/17 00:33:49;;;;;;;4.93;1.10;;;;;;;;;;5013178;28;20468;-67
2022/07/17 00:36:15;;;;;;;2.97;0.57;;;;;;;;;;5013343;28;20387;-67
2022/07/17 00:38:41;;;;;;;3.85;0.98;;;14.40;99.90;;;;;;5013520;28;20116;-67
2022/07/17 00:41:06;;;;;;;1.77;0.65;;;;;;;;;;5013125;28;20029;-67
2022/07/17 00:43:32;;;;;;;4.97;0.73;;;13.90;99.90;;;;;;5013019;28;20064;-67
2022/07/17 00:46:00;;;;;;;1.95;0.65;;;13.80;99.90;;;;;;5013041;28;20479;-67
2022/07/17 00:48:26;;;;;;;2.28;0.60;;;;;;;;;;5012904;28;20017;-67
2022/07/17 00:50:52;;;;;;;4.72;0.70;;;;;;;;;;5008584;28;20026;-67
2022/07/17 00:53:18;;;;;;;5.57;0.75;;;13.70;99.90;;;;;;5003299;28;20107;-67
2022/07/17 00:55:47;;;;;;;3.85;1.13;;;13.70;99.90;;;;;;5013274;28;21014;-67
2022/07/17 00:58:21;;;;;;;3.70;0.80;;;13.70;99.90;;;;;;4985210;28;20022;-67
2022/07/17 01:00:49;;;;;;;3.15;0.70;;;13.60;97.40;;;;;;5013017;28;20026;-67
2022/07/17 01:03:16;;;;;;;4.40;1.45;;;13.70;99.90;;;;;;5013041;28;20029;-67
2022/07/17 01:05:42;;;;;;;2.00;1.05;;;13.60;99.90;;;;;;5013138;28;20026;-67
2022/07/17 01:08:08;;;;;;;5.85;1.30;;;;;;;;;;5009765;28;20498;-67
2022/07/17 01:10:33;;;;;;;1.98;0.82;;;13.50;99.90;;;;;;4996914;28;20034;-66
2022/07/17 01:12:59;;;;;;;2.17;0.70;;;13.60;99.90;;;;;;5007552;28;20091;-67
2022/07/17 01:15:24;;;;;;;2.55;0.75;;;13.90;99.90;;;;;;5012754;28;20502;-67
2022/07/17 01:17:50;;;;;;;3.92;0.80;;;13.60;99.90;;;;;;5012491;28;20036;-67
2022/07/17 01:20:16;;;;;;;2.15;0.80;;;;;;;;;;5012372;28;20487;-67
2022/07/17 01:22:44;;;;;;;5.63;1.17;;;13.50;97.80;;;;;;5012645;28;20368;-67
2022/07/17 01:25:10;;;;;;;3.75;0.88;;;;;;;;;;5012251;28;20030;-67
2022/07/17 01:27:36;;;;;;;2.75;0.63;;;13.50;99.90;;;;;;5012331;28;20030;-67
2022/07/17 01:30:02;;;;;;;4.45;0.80;;;13.50;99.90;;;;;;5012593;28;20033;-67
2022/07/17 01:32:35;;;;;;;2.90;0.85;;;13.60;99.90;;;;;;5012131;28;20390;-67
2022/07/17 01:35:02;;;;;;;3.38;0.93;;;13.40;99.90;;;;;;5012284;28;20033;-67
2022/07/17 01:37:28;;;;;;;4.78;0.98;;;13.40;97.90;;;;;;5011945;28;20026;-67
2022/07/17 01:39:54;;;;;;;5.75;0.98;;;13.30;99.90;;;;;;5003893;28;20026;-67
2022/07/17 01:42:22;;;;;;;1.70;0.70;;;13.30;99.90;;;;;;5007501;28;20030;-67
2022/07/17 01:44:48;;;;;;;3.50;0.80;;;;;;;;;;5012397;28;20026;-67
2022/07/17 01:47:15;;;;;;;2.70;1.00;;;13.40;98.10;;;;;;5011996;28;20030;-67
2022/07/17 01:49:47;;;;;;;2.50;0.82;;;13.30;98.40;;;;;;5012182;28;20491;-67
2022/07/17 01:52:13;;;;;;;2.58;0.93;;;13.40;99.90;;;;;;5011540;28;20545;-67
2022/07/17 01:54:40;;;;;;;3.38;1.13;;;13.30;99.90;;;;;;4984073;28;20113;-67
2022/07/17 01:57:05;;;;;;;3.55;1.60;;;13.40;99.90;;;;;;4992254;28;20027;-67
2022/07/17 01:59:31;;;;;;;1.48;0.90;;;;;;;;;;4992065;28;20539;-67
2022/07/17 02:01:57;;;;;;;4.28;1.30;;;13.20;99.90;;;;;;4992186;28;20038;-67
2022/07/17 02:04:23;;;;;;;5.32;1.20;;;;;;;;;;4992089;28;20034;-67
2022/07/17 02:06:49;;;;;;;4.88;1.83;;;;;;;;;;4991999;28;20034;-67
2022/07/17 02:09:15;;;;;;;4.68;0.88;;;;;;;;;;4991444;28;20068;-67
2022/07/17 02:11:40;;;;;;;5.18;1.10;;;13.10;99.90;;;;;;4992290;28;20049;-67
2022/07/17 02:14:06;;;;;;;4.28;1.23;;;;;;;;;;4991681;28;20561;-67
2022/07/17 02:16:32;;;;;;;2.33;0.82;;;13.00;99.90;;;;;;4992024;28;20595;-67
2022/07/17 02:18:57;;;;;;;10.30;1.48;;;;;;;;;;4991860;28;20023;-67
2022/07/17 02:21:23;;;;;;;4.60;1.00;;;12.70;99.90;;;;;;4991814;28;20030;-67
2022/07/17 02:23:49;;;;;;;1.55;0.90;;;;;;;;;;5007779;28;20034;-67
2022/07/17 02:26:14;;;;;;;3.05;0.93;;;12.90;99.90;;;;;;5010760;28;20486;-67
2022/07/17 02:28:40;;;;;;;2.38;0.88;;;12.80;99.90;;;;;;5011333;28;20030;-67
2022/07/17 02:31:06;;;;;;;6.00;1.20;;;12.80;99.90;;;;;;5011284;28;20026;-67
2022/07/17 02:33:31;;;;;;;4.35;1.13;;;12.80;99.90;;;;;;5011142;28;20042;-67
2022/07/17 02:35:57;;;;;;;4.45;1.10;;;12.80;99.90;;;;;;5011075;28;20387;-67
2022/07/17 02:38:23;;;;;;;2.90;0.85;;;;;;;;;;5010825;28;20048;-67
2022/07/17 02:40:49;;;;;;;3.00;0.73;;;;;;;;;;5009552;28;20033;-67
2022/07/17 02:43:14;;;;;;;5.38;1.33;;;12.80;99.90;;;;;;5002949;28;20430;-67
2022/07/17 02:45:40;;;;;;;4.82;0.93;;;12.70;99.90;;;;;;5011381;28;20026;-67
2022/07/17 02:48:06;;;;;;;3.53;1.23;;;;;;;;;;5011048;28;20017;-67
2022/07/17 02:50:31;;;;;;;2.28;0.93;;;12.60;99.90;;;;;;5010939;28;20034;-67
2022/07/17 02:52:57;;;;;;;5.03;0.77;;;;;;;;;;5010289;28;20041;-67
2022/07/17 02:55:23;;;;;;;3.72;1.13;;;12.60;99.90;;;;;;5010828;28;20026;-67
2022/07/17 02:57:49;;;;;;;3.67;1.30;;;;;;;;;;5010693;28;20677;-67
2022/07/17 03:00:17;;;;;;;11.35;1.45;;;12.50;99.90;;;;;;5010724;28;20037;-67
2022/07/17 03:02:44;;;;;;;5.38;0.80;;;12.50;99.90;;;;;;5011090;28;20026;-67
2022/07/17 03:05:10;;;;;;;3.95;0.80;;;12.50;99.90;;;;;;5010322;28;20030;-67
2022/07/17 03:07:36;;;;;;;6.07;1.27;;;12.50;99.90;;;;;;5009591;28;20021;-67
2022/07/17 03:10:03;;;;;;;2.03;0.70;;;12.50;99.90;;;;;;5001341;28;20103;-67
2022/07/17 03:12:29;;;;;;;5.18;1.52;;;;;;;;;;4987937;28;20042;-67
2022/07/17 03:14:55;;;;;;;3.08;1.02;;;;;;;;;;4988531;28;20112;-67
2022/07/17 03:17:21;;;;;;;4.80;0.90;;;;;;;;;;4988688;28;20077;-67
2022/07/17 03:19:47;;;;;;;3.38;1.05;;;;;;;;;;4988968;28;20034;-67
2022/07/17 03:22:12;;;;;;;2.80;0.82;;;;;;;;;;4991438;28;20029;-67
2022/07/17 03:24:39;;;;;;;5.60;0.82;;;12.00;99.90;;;;;;5009938;28;20061;-67
2022/07/17 03:27:04;;;;;;;3.72;1.00;;;12.10;99.90;;;;;;5009147;28;20494;-67
2022/07/17 03:29:30;;;;;;;2.47;0.98;;;12.30;99.90;;;;;;5010212;28;20038;-67
2022/07/17 03:31:56;;;;;;;1.42;0.80;;;;;;;;;;5010219;28;20092;-67
2022/07/17 03:34:21;;;;;;;5.28;0.90;;;12.30;99.90;;;;;;5009850;28;20514;-67
2022/07/17 03:36:47;;;;;;;5.25;1.38;;;12.20;99.90;;;;;;5009972;28;20112;-67
2022/07/17 03:39:13;;;;;;;3.17;0.90;;;12.20;99.90;;;;;;5007474;28;20032;-67
2022/07/17 03:41:39;;;;;;;4.90;1.08;;;12.20;99.90;;;;;;5010164;28;20141;-67
2022/07/17 03:44:05;;;;;;;5.68;1.25;;;12.10;99.90;;;;;;5008343;28;20044;-67
2022/07/17 03:46:31;;;;;;;3.63;1.27;;;12.10;99.90;;;;;;4997823;28;20080;-67
2022/07/17 03:48:56;;;;;;;4.00;1.38;;;12.20;99.90;;;;;;5010219;28;20037;-67
2022/07/17 03:51:22;;;;;;;6.22;1.10;;;;;;;;;;5008893;28;20422;-66
2022/07/17 03:53:48;;;;;;;2.83;1.02;;;12.20;99.90;;;;;;5010174;28;20037;-67
2022/07/17 03:56:14;;;;;;;7.30;1.88;;;;;;;;;;5009241;28;20030;-67
2022/07/17 03:58:40;;;;;;;3.63;1.13;;;;;;;;;;5010124;28;20538;-67
2022/07/17 04:01:06;;;;;;;3.28;0.95;;;;;;;;;;5009714;28;20099;-68
2022/07/17 04:03:32;;;;;;;5.45;1.05;;;;;;;;;;5009507;28;20029;-67
2022/07/17 04:05:57;;;;;;;3.08;1.35;;;12.20;99.90;;;;;;5009533;28;20026;-67
2022/07/17 04:08:23;;;;;;;2.30;0.90;;;12.20;99.90;;;;;;5008778;28;20187;-67
2022/07/17 04:10:49;;;;;;;5.57;1.80;;;;;;;;;;5001609;28;20534;-68
2022/07/17 04:13:14;;;;;;;3.42;1.25;;;12.30;99.90;;;;;;5009200;28;20483;-68
2022/07/17 04:15:49;;;;;;;3.72;0.98;;;12.30;99.90;;;;;;5010108;28;20471;-67
2022/07/17 04:18:19;;;;;;;3.88;1.05;;;12.40;99.90;;;;;;5009306;28;20036;-67
2022/07/17 04:20:45;;;;;;;4.32;1.15;;;12.10;99.90;;;;;;5009592;28;20141;-67
2022/07/17 04:23:11;;;;;;;2.85;1.70;;;12.50;99.90;;;;;;5009138;28;20100;-67
2022/07/17 04:25:37;;;;;;;4.55;1.17;;;;;;;;;;5009641;28;20382;-67
2022/07/17 04:28:02;;;;;;;3.40;0.95;;;12.50;99.90;;;;;;5010022;28;20081;-67
2022/07/17 04:30:28;;;;;;;2.03;0.70;;;;;;;;;;5009485;28;20034;-67
2022/07/17 04:32:54;;;;;;;4.30;1.13;;;12.40;99.90;;;;;;5009781;28;20104;-67
2022/07/17 04:35:20;;;;;;;7.30;1.70;;;;;;;;;;5008808;28;20376;-67
2022/07/17 04:37:45;;;;;;;9.93;1.70;;;12.60;99.90;;;;;;5009434;28;20391;-67
2022/07/17 04:40:11;;;;;;;1.90;1.02;;;12.50;99.90;;;;;;5005714;28;20070;-67
2022/07/17 04:42:37;;;;;;;2.08;1.00;;;12.60;99.90;;;;;;5009277;28;20018;-67
2022/07/17 04:45:04;;;;;;;2.53;1.00;;;12.80;99.90;;;;;;5009776;28;20030;-67
2022/07/17 04:47:29;;;;;;;1.95;0.95;;;12.80;99.90;;;;;;5009140;28;20033;-67
2022/07/17 04:49:55;;;;;;;2.83;1.23;;;12.80;99.90;;;;;;5010479;28;20092;-67
2022/07/17 04:52:20;;;;;;;4.05;1.10;;;12.80;99.90;;;;;;5012676;28;20049;-67
2022/07/17 04:54:46;;;;;;;3.17;0.95;;;12.80;99.90;;;;;;5013068;28;20356;-67
2022/07/17 04:57:12;;;;;;;4.82;1.10;;;;;;;;;;5012913;28;20072;-67
2022/07/17 04:59:37;;;;;;;1.75;0.98;;;12.80;99.90;;;;;;5012810;28;20022;-67
2022/07/17 05:02:03;;;;;;;3.95;1.10;;;;;;;;;;5013162;28;20072;-67
2022/07/17 05:04:29;;;;;;;3.13;1.20;;;12.90;99.90;;;;;;5012082;28;20026;-67
2022/07/17 05:06:55;;;;;;;3.17;1.27;;;;;;;;;;5012860;28;20033;-67
2022/07/17 05:09:20;;;;;;;2.83;1.05;;;13.10;99.90;;;;;;5002133;28;20058;-67
2022/07/17 05:11:46;;;;;;;3.72;1.00;;;13.20;99.90;;;;;;5012523;28;20444;-67
2022/07/17 05:14:12;;;;;;;5.35;1.55;;;13.20;99.90;;;;;;5012400;28;20200;-67
2022/07/17 05:16:38;;;;;;;4.47;1.17;;;13.20;99.90;;;;;;5012575;28;20034;-67
2022/07/17 05:19:04;;;;;;;5.03;1.27;;;13.30;99.90;;;;;;5013000;28;20021;-67
2022/07/17 05:21:29;;;;;;;5.20;1.38;;;13.40;99.90;;;;;;5010244;28;20087;-67
2022/07/17 05:23:55;;;;;;;2.53;0.95;;;;;;;;;;5006360;28;20464;-67
2022/07/17 05:26:21;;;;;;;3.63;1.80;;;13.60;99.90;;;;;;4992653;28;20899;-67
2022/07/17 05:28:46;;;;;;;3.20;1.70;;;13.50;99.90;;;;;;4993974;28;20483;-67
2022/07/17 05:31:12;;;;;;;6.18;1.50;;;13.70;99.90;;;;;;5004598;28;20049;-67
2022/07/17 05:33:38;;;;;;;6.60;1.85;;;13.70;99.90;;;;;;4991871;28;20419;-67
2022/07/17 05:36:03;;;;;;;4.85;2.20;;;14.00;99.90;;;;;;5011727;28;20348;-67
2022/07/17 05:38:29;;;;;;;5.28;1.30;;;14.00;99.90;;;;;;5000304;28;20562;-67
2022/07/17 05:40:55;;;;;;;4.68;1.40;;;;;;;;;;4995748;28;20038;-67
2022/07/17 05:43:21;;;;;;;9.30;1.33;;;;;;;;;;5003022;28;20022;-67
2022/07/17 05:45:47;;;;;;;5.55;1.27;;;;;;;;;;4992165;28;20030;-67
2022/07/17 05:48:12;;;;;;;4.72;1.00;;;14.40;99.90;;;;;;5003920;28;20026;-67
2022/07/17 05:50:38;;;;;;;5.82;1.65;;;;;;;;;;4992236;28;20084;-67
2022/07/17 05:53:04;;;;;;;5.07;1.42;;;15.00;99.90;;;;;;4992285;28;20034;-67
2022/07/17 05:55:30;;;;;;;4.95;1.02;;;;;;;;;;4992171;28;20040;-67
2022/07/17 05:57:56;;;;;;;4.13;1.40;;;;;;;;;;4991194;28;20037;-67
2022/07/17 06:00:21;;;;;;;3.20;1.10;;;14.90;99.90;;;;;;4990851;28;20022;-67
2022/07/17 06:02:47;;;;;;;6.78;1.15;;;15.10;99.90;;;;;;4991274;28;20042;-67
2022/07/17 06:05:12;;;;;;;5.72;1.00;;;14.90;99.90;;;;;;4991931;28;20387;-67
2022/07/17 06:07:38;;;;;;;3.35;0.80;;;15.50;99.90;;;;;;4992444;28;20030;-67
2022/07/17 06:10:05;;;;;;;4.82;0.98;;;14.80;99.90;;;;;;4991893;28;20149;-68
2022/07/17 06:12:30;;;;;;;5.82;0.93;;;15.40;99.90;;;;;;4991821;28;20049;-68
2022/07/17 06:14:56;;;;;;;2.78;0.85;;;15.40;99.90;;;;;;4992016;28;20051;-67
2022/07/17 06:17:22;;;;;;;5.95;1.00;;;15.50;99.90;;;;;;4991348;28;20036;-67
2022/07/17 06:19:51;;;;;;;3.40;0.65;;;15.50;99.90;;;;;;4992086;28;20022;-68
2022/07/17 06:22:20;;;;;;;6.68;1.13;;;15.40;99.90;;;;;;4995710;28;20026;-68
2022/07/17 06:24:46;;;;;;;4.55;1.10;;;;;;;;;;5011730;28;20030;-67
2022/07/17 06:27:12;;;;;;;6.00;1.10;;;15.60;99.90;;;;;;5011172;28;20030;-67
2022/07/17 06:29:38;;;;;;;3.65;0.90;;;;;;;;;;5011460;28;20040;-67
2022/07/17 06:32:05;;;;;;;3.30;0.93;;;15.80;99.90;;;;;;5010923;28;20519;-67
2022/07/17 06:34:30;;;;;;;3.85;0.90;;;16.00;99.90;;;;;;5010960;28;20018;-67
2022/07/17 06:36:56;;;;;;;3.38;0.93;;;15.80;99.90;;;;;;4993905;28;20072;-67
2022/07/17 06:39:21;;;;;;;4.45;0.95;;;16.00;99.90;;;;;;5002717;28;20088;-67
2022/07/17 06:41:47;;;;;;;2.47;0.77;;;16.40;99.90;;;;;;5011375;28;20038;-67
2022/07/17 06:44:12;;;;;;;2.33;0.77;;;15.60;99.90;;;;;;5010824;28;20054;-67
2022/07/17 06:46:38;;;;;;;4.07;0.90;;;16.30;99.90;;;;;;5010535;28;20026;-67
2022/07/17 06:49:04;;;;;;;3.28;0.95;;;16.30;99.90;;;;;;5008488;28;20129;-67
2022/07/17 06:51:29;;;;;;;2.28;0.82;;;16.50;99.90;;;;;;4991126;28;20080;-68
2022/07/17 06:53:55;;;;;;;2.85;0.50;;;16.20;99.90;;;;;;4991407;28;20515;-67
2022/07/17 06:56:20;;;;;;;3.30;0.90;;;16.20;99.90;;;;;;4991286;28;20026;-67
2022/07/17 06:58:46;;;;;;;4.20;0.73;;;16.50;99.90;;;;;;4991210;28;20096;-68
2022/07/17 07:01:11;;;;;;;6.20;1.20;;;16.40;99.90;;;;;;4990625;28;20068;-67
2022/07/17 07:03:37;;;;;;;4.47;0.85;;;;;;;;;;4990891;28;20030;-70
2022/07/17 07:06:03;;;;;;;3.58;1.00;;;16.40;99.90;;;;;;4991170;28;20431;-69
2022/07/17 07:08:29;;;;;;;2.88;0.82;;;16.60;99.90;;;;;;4990412;28;20041;-69
2022/07/17 07:10:54;;;;;;;4.22;0.95;;;16.70;99.90;;;;;;4991196;28;20034;-69
2022/07/17 07:13:20;;;;;;;2.17;0.80;;;16.70;99.90;;;;;;4990053;28;20042;-69
2022/07/17 07:15:46;;;;;;;4.75;0.50;;;;;;;;;;4990367;28;20128;-69
2022/07/17 07:18:11;;;;;;;3.28;1.08;;;17.10;99.90;;;;;;4990437;28;20122;-68
2022/07/17 07:20:37;;;;;;;3.38;1.00;;;16.80;99.90;;;;;;4990767;28;20026;-69
2022/07/17 07:23:02;;;;;;;2.88;0.52;;;17.30;99.90;;;;;;5001118;28;20040;-69
2022/07/17 07:25:28;;;;;;;3.60;0.68;;;17.40;99.90;;;;;;5009839;28;20025;-68
2022/07/17 07:27:54;;;;;;;5.05;0.68;;;17.40;99.90;;;;;;5009010;28;20080;-69
2022/07/17 07:30:20;;;;;;;3.50;0.60;;;17.00;99.90;;;;;;4995867;28;20034;-68
2022/07/17 07:32:45;;;;;;;6.03;0.63;;;17.20;99.90;;;;;;4990150;28;20088;-69
2022/07/17 07:35:11;;;;;;;5.05;0.80;;;17.70;99.90;;;;;;4990410;28;20037;-68
2022/07/17 07:37:37;;;;;;;6.45;0.60;;;17.60;99.90;;;;;;4990218;28;20014;-69
2022/07/17 07:40:04;;;;;;;6.80;0.85;;;17.80;99.90;;;;;;4995628;28;20034;-69
2022/07/17 07:42:29;;;;;;;1.88;0.70;;;17.60;99.90;;;;;;5005659;28;20057;-70
2022/07/17 07:44:55;;;;;;;3.92;0.88;;;17.70;93.50;;;;;;4990697;28;20030;-70
2022/07/17 07:47:21;;;;;;;5.32;0.70;;;17.70;93.40;;;;;;4990076;28;20097;-70
2022/07/17 07:49:46;;;;;;;4.45;0.95;;;17.90;93.30;;;;;;4990310;28;20061;-70
2022/07/17 07:52:12;;;;;;;7.00;1.02;;;17.80;99.90;;;;;;4990112;28;20035;-70
2022/07/17 07:54:38;;;;;;;5.53;0.68;;;19.30;93.40;;;;;;4990028;28;20062;-69
2022/07/17 07:57:03;;;;;;;3.97;0.80;;;18.40;99.80;;;;;;4990234;28;20030;-70
2022/07/17 07:59:32;;;;;;;7.00;1.45;;;18.10;99.80;;;;;;4989723;28;20030;-70
2022/07/17 08:01:58;;;;;;;4.38;0.82;;;18.20;99.70;;;;;;4989911;28;20033;-70
2022/07/17 08:04:24;;;;;;;3.97;1.25;;;18.40;92.60;;;;;;4989812;28;20153;-70
2022/07/17 08:06:49;;;;;;;2.53;0.63;;;18.40;92.40;;;;;;4994000;28;20109;-70
2022/07/17 08:09:15;;;;;;;5.53;0.90;;;18.30;99.10;;;;;;4989966;28;20038;-70
2022/07/17 08:11:41;;;;;;;2.72;0.80;;;19.50;92.30;;;;;;4989403;28;20030;-70
2022/07/17 08:14:07;;;;;;;2.97;0.70;;;18.30;91.80;;;;;;4994341;28;20054;-70
2022/07/17 08:16:32;;;;;;;3.42;0.73;;;18.40;98.80;;;;;;4999756;28;20101;-71
2022/07/17 08:18:58;;;;;;;2.60;0.57;;;19.00;92.20;;;;;;4990336;28;20109;-70
2022/07/17 08:21:23;;;;;;;4.85;0.90;;;18.70;98.80;;;;;;4994679;28;20084;-71
2022/07/17 08:23:49;;;;;;;5.18;1.25;;;18.70;91.60;;;;;;5006885;28;20037;-69
2022/07/17 08:26:14;;;;;;;4.63;0.68;;;18.90;91.40;;;;;;5012687;28;20022;-70
2022/07/17 08:28:40;;;;;;;4.47;0.82;;;18.90;91.10;;;;;;5013369;28;20065;-68
2022/07/17 08:31:06;;;;;;;5.13;1.10;;;19.90;91.30;;;;;;5013896;28;20018;-69
2022/07/17 08:33:31;;;;;;;3.65;0.75;;;19.00;91.10;;;;;;4983500;28;20479;-69
2022/07/17 08:35:57;;;;;;;5.38;0.80;;;19.10;90.80;;;;;;4993738;28;20438;-69
2022/07/17 08:38:23;;;;;;;5.00;0.95;;;19.20;90.60;;;;;;4993300;28;20022;-69
2022/07/17 08:40:51;;;;;;;2.80;0.70;;;19.40;90.60;;;;;;4993372;28;20019;-69
2022/07/17 08:43:17;;;;;;;4.15;0.57;;;19.30;90.60;;;;;;4993001;28;20058;-68
2022/07/17 08:45:43;;;;;;;3.65;1.20;;;19.40;97.70;;;;;;4993409;28;20488;-68
2022/07/17 08:48:13;;;;;;;4.15;0.75;;;19.50;90.40;;;;;;4993805;28;20034;-68
2022/07/17 08:50:39;;;;;;;3.70;1.10;;;19.40;90.50;;;;;;4993320;28;20024;-68
2022/07/17 08:53:05;;;;;;;3.63;0.88;;;19.40;90.00;;;;;;4993634;28;20130;-68
2022/07/17 08:55:31;;;;;;;2.13;0.90;;;19.40;89.70;;;;;;4992586;28;20038;-68
2022/07/17 08:57:57;;;;;;;8.75;1.08;;;19.40;89.10;;;;;;4975956;28;20030;-68
2022/07/17 09:00:23;;;;;;;5.35;1.08;;;19.30;88.90;;;;;;4994371;28;20108;-68
2022/07/17 09:03:03;;;;;;;5.28;0.80;;;19.40;89.00;;;;;;4998766;28;20489;-69
2022/07/17 09:05:35;;;;;;;4.45;0.98;;;19.50;96.30;;;;;;4994265;28;20531;-68
2022/07/17 09:08:02;;;;;;;5.25;0.80;;;20.00;88.50;;;;;;4993388;28;20073;-69
2022/07/17 09:10:31;;;;;;;5.20;0.80;;;19.50;87.90;;;;;;4992446;28;20034;-68
2022/07/17 09:12:57;;;;;;;4.55;0.75;;;19.70;87.90;;;;;;4993038;28;20038;-68
2022/07/17 09:15:23;;;;;;;1.70;0.90;;;19.70;86.80;;;;;;4992898;28;20125;-68
2022/07/17 09:17:53;;;;;;;2.70;0.80;;;19.60;86.60;;;;;;4992631;28;20462;-68
2022/07/17 09:20:20;;;;;;;4.00;0.60;;;19.40;87.00;;;;;;4992800;28;20777;-68
2022/07/17 09:23:02;;;;;;;2.35;0.82;;;19.70;86.60;;;;;;5000718;28;20410;-67
2022/07/17 09:25:43;;;;;;;2.53;0.85;;;19.80;85.60;;;;;;5011773;28;20037;-69
2022/07/17 09:28:11;;;;;;;3.15;0.73;;;20.50;87.50;;;;;;5012605;28;20022;-69
2022/07/17 09:30:42;;;;;;;2.78;0.73;;;20.10;86.30;;;;;;5012400;28;20056;-69
2022/07/17 09:33:13;;;;;;;4.10;0.90;;;20.20;86.70;;;;;;4999619;28;20484;-69
2022/07/17 09:36:12;;;;;;;4.65;0.98;;;21.40;86.40;;;;;;5003298;28;20026;-69
2022/07/17 09:38:40;;;;;;;0.90;0.50;;;21.70;86.20;;;;;;4995911;28;20038;-68
2022/07/17 09:41:15;;;;;;;4.18;0.70;;;20.50;85.30;;;;;;4992200;28;20034;-68
2022/07/17 09:43:46;;;;;;;2.53;0.63;;;20.60;83.00;;;;;;5004213;28;20022;-68
2022/07/17 09:46:18;;;;;;;4.57;0.65;;;20.60;81.90;;;;;;5001202;28;20038;-68
2022/07/17 09:48:47;;;;;;;7.97;0.95;;;20.70;82.30;;;;;;5003084;28;20026;-68
2022/07/17 09:51:19;;;;;;;3.15;0.75;;;20.70;83.90;;;;;;5008378;28;20026;-68
2022/07/17 09:53:47;;;;;;;4.30;1.33;;;20.80;83.90;;;;;;5010212;28;20549;-67
2022/07/17 09:56:16;;;;;;;2.70;0.60;;;20.50;83.00;;;;;;5006216;28;20109;-66
2022/07/17 09:58:45;;;;;;;3.33;0.98;;;20.70;82.90;;;;;;5004305;28;20026;-68
2022/07/17 10:01:13;;;;;;;2.85;0.88;;;20.70;83.00;;;;;;5007039;28;20030;-68
2022/07/17 10:03:39;;;;;;;1.85;0.63;;;20.70;82.70;;;;;;4992154;28;20093;-69
2022/07/17 10:06:05;;;;;;;2.20;0.80;;;20.80;82.70;;;;;;4991988;28;20022;-69
2022/07/17 10:08:31;;;;;;;1.77;0.75;;;20.70;82.50;;;;;;4986335;28;20105;-69
2022/07/17 10:10:57;;;;;;;5.45;0.80;;;20.90;82.70;;;;;;4991683;28;20038;-69
2022/07/17 10:13:22;;;;;;;1.98;0.68;;;21.00;82.10;;;;;;5006129;28;20033;-69
2022/07/17 10:15:49;;;;;;;1.90;0.60;;;20.80;82.00;;;;;;5008243;28;20064;-69
2022/07/17 10:18:14;;;;;;;3.33;0.70;;;22.30;82.10;;;;;;5001319;28;20503;-69
2022/07/17 10:20:40;;;;;;;2.85;0.80;;;21.10;81.40;;;;;;5009046;28;20018;-70
2022/07/17 10:23:15;;;;;;;3.38;1.05;;;21.30;81.70;;;;;;5008624;28;20029;-70
2022/07/17 10:25:42;;;;;;;3.72;0.90;;;21.40;82.60;;;;;;5007805;28;20383;-69
2022/07/17 10:28:08;;;;;;;4.68;1.70;;;21.40;81.10;;;;;;5008287;28;20029;-69
2022/07/17 10:30:33;;;;;;;3.33;0.75;;;21.40;80.70;;;;;;5004897;28;20022;-69
2022/07/17 10:33:04;;;;;;;2.53;0.95;;;21.50;80.80;;;;;;5007581;28;20053;-69
2022/07/17 10:35:42;;;;;;;4.65;0.93;;;21.60;80.70;;;;;;4994608;28;20049;-69
2022/07/17 10:38:13;;;;;;;2.42;0.73;;;21.60;80.90;;;;;;4989508;28;20022;-69
2022/07/17 10:40:39;;;;;;;5.15;0.70;;;21.60;80.30;;;;;;4991358;28;20022;-69
2022/07/17 10:43:08;;;;;;;4.20;0.75;;;21.60;79.20;;;;;;4991510;28;20574;-69
2022/07/17 10:45:45;;;;;;;4.40;0.80;;;21.50;79.90;;;;;;4973574;28;20121;-69
2022/07/17 10:48:19;;;;;;;5.70;0.77;;;21.60;77.50;;;;;;4998435;28;20034;-69
2022/07/17 10:50:51;;;;;;;2.15;0.68;;;21.60;80.40;;;;;;5007046;28;20114;-69
2022/07/17 10:53:25;;;;;;;3.08;0.70;;;21.60;79.80;;;;;;5001713;28;20117;-69
2022/07/17 10:55:54;;;;;;;3.40;1.00;;;21.80;77.50;;;;;;5003600;28;20022;-69
2022/07/17 10:58:32;;;;;;;3.08;0.85;;;21.70;78.80;;;;;;4997697;28;20390;-69
2022/07/17 11:01:09;;;;;;;4.30;0.85;;;21.80;79.00;;;;;;4993121;28;20382;-69
2022/07/17 11:03:50;;;;;;;3.80;0.80;;;21.80;76.40;;;;;;4991298;28;20065;-69
2022/07/17 11:06:27;;;;;;;4.28;0.65;;;21.80;76.90;;;;;;4990689;28;20447;-69
2022/07/17 11:08:56;;;;;;;3.08;0.85;;;21.90;78.80;;;;;;5003893;28;20034;-69
2022/07/17 11:11:36;;;;;;;1.83;0.60;;;21.80;78.40;;;;;;5008492;28;20022;-69
2022/07/17 11:14:18;;;;;;;4.75;0.75;;;21.90;78.70;;;;;;5005780;28;20403;-69
2022/07/17 11:16:50;;;;;;;7.05;1.15;;;22.00;79.70;;;;;;5007608;28;20033;-69
2022/07/17 11:19:27;;;;;;;5.28;1.17;;;22.20;78.60;;;;;;5005929;28;20030;-69
2022/07/17 11:21:54;;;;;;;2.33;0.77;;;22.40;76.80;;;;;;5006739;28;20470;-69
2022/07/17 11:24:20;;;;;;;3.28;0.60;;;22.30;77.80;;;;;;5007764;28;20029;-69
2022/07/17 11:26:49;;;;;;;4.60;0.85;;;22.30;77.60;;;;;;5004393;28;20034;-70
2022/07/17 11:29:15;;;;;;;3.42;0.80;;;22.40;78.10;;;;;;4989280;28;20527;-70
2022/07/17 11:31:40;;;;;;;3.10;0.80;;;22.40;77.10;;;;;;4989470;28;20042;-70
2022/07/17 11:34:11;;;;;;;2.58;1.08;;;22.50;76.80;;;;;;4989431;28;20128;-70
2022/07/17 11:36:39;;;;;;;4.05;0.82;;;22.40;76.80;;;;;;4995155;28;20478;-70
2022/07/17 11:39:11;;;;;;;2.72;0.60;;;22.40;76.80;;;;;;4989934;28;20038;-70
2022/07/17 11:41:50;;;;;;;1.98;0.80;;;22.30;74.40;;;;;;5000772;28;20042;-70
2022/07/17 11:44:17;;;;;;;3.42;0.90;;;23.60;77.30;;;;;;5003879;28;20030;-70
2022/07/17 11:46:45;;;;;;;1.90;0.80;;;22.50;76.10;;;;;;4998046;28;20423;-70
2022/07/17 11:49:23;;;;;;;4.85;0.90;;;22.50;75.60;;;;;;4994015;28;20034;-69
2022/07/17 11:51:48;;;;;;;3.38;0.80;;;22.50;75.80;;;;;;4990429;28;20026;-70
2022/07/17 11:54:16;;;;;;;5.63;0.60;;;22.50;75.30;;;;;;4995422;28;20034;-70
2022/07/17 11:56:50;;;;;;;3.10;0.75;;;23.20;75.60;;;;;;4988677;28;20022;-70
2022/07/17 11:59:27;;;;;;;1.67;0.77;;;22.60;75.00;;;;;;4987642;28;20399;-69
2022/07/17 12:01:53;;;;;;;1.83;0.60;;;22.80;73.30;;;;;;4989892;28;20384;-70
2022/07/17 12:04:19;;;;;;;4.93;0.70;;;22.90;73.90;;;;;;4989519;28;20026;-71
2022/07/17 12:06:46;;;;;;;4.18;1.20;;;22.90;74.00;;;;;;4990206;28;20049;-70
2022/07/17 12:09:12;;;;;;;3.13;0.95;;;22.90;73.80;;;;;;4990065;28;20037;-70
2022/07/17 12:11:48;;;;;;;2.83;0.80;;;22.90;73.60;;;;;;5003207;28;20077;-70
2022/07/17 12:14:14;;;;;;;1.25;0.80;;;22.90;74.80;;;;;;5002755;28;20050;-70
2022/07/17 12:16:40;;;;;;;2.78;0.80;;;23.00;74.00;;;;;;5006164;28;20023;-70
2022/07/17 12:19:14;;;;;;;2.83;0.77;;;23.10;73.70;;;;;;4991021;28;20029;-70
2022/07/17 12:22:01;;;;;;;1.55;0.80;;;23.30;74.00;;;;;;5007823;28;20022;-70
2022/07/17 12:24:31;;;;;;;3.67;0.93;;;23.50;72.00;;;;;;4985959;28;20069;-71
2022/07/17 12:27:01;;;;;;;3.15;1.00;;;24.30;73.00;;;;;;5009667;28;20081;-70
2022/07/17 12:29:28;;;;;;;2.95;1.10;;;23.50;70.80;;;;;;5009350;28;20418;-69
2022/07/17 12:32:21;;;;;;;3.72;0.85;;;23.70;72.70;;;;;;5009540;28;20097;-71
2022/07/17 12:34:49;;;;;;;2.65;0.80;;;23.70;73.40;;;;;;4988346;28;20038;-71
2022/07/17 12:37:19;;;;;;;2.80;0.60;;;23.80;72.70;;;;;;5009067;28;20243;-71
2022/07/17 12:39:46;;;;;;;6.15;1.00;;;24.00;70.00;;;;;;5009896;28;20084;-71
2022/07/17 12:42:13;;;;;;;4.03;1.27;;;23.90;71.50;;;;;;5009074;28;20084;-72
2022/07/17 12:44:38;;;;;;;2.47;1.00;;;23.90;70.90;;;;;;5002365;28;20491;-71
2022/07/17 12:47:04;;;;;;;3.47;0.80;;;24.20;70.60;;;;;;5008960;28;20028;-72
2022/07/17 12:49:30;;;;;;;3.28;0.98;;;24.00;70.70;;;;;;5008849;28;20101;-71
2022/07/17 12:51:56;;;;;;;3.00;0.73;;;24.10;71.00;;;;;;5009491;28;20052;-71
2022/07/17 12:54:21;;;;;;;5.03;1.05;;;24.20;70.50;;;;;;5008834;28;20109;-72
2022/07/17 12:56:47;;;;;;;1.92;0.68;;;25.40;70.80;;;;;;5009428;28;20491;-73
2022/07/17 12:59:13;;;;;;;4.18;1.00;;;24.30;69.30;;;;;;5008728;28;20386;-72
2022/07/17 13:01:38;;;;;;;1.70;0.77;;;24.40;68.60;;;;;;5008398;28;20065;-71
2022/07/17 13:04:04;;;;;;;3.92;0.77;;;24.50;68.60;;;;;;4989612;28;20031;-70